Terminal Aerodrome Forecast
Issued by NWS

Home | Current Version | Previous Version | Graphics & Text | Print | Product List | Glossary On
Versions: 1 2 3 4 5 6 7 8 9 10 11 12 13 14 15 16 17
005
FTUS43 KMPX 241735
TAFRNH
TAF
KRNH 241735Z 2418/2518 01016G25KT 6SM -SN BR BKN025
      TEMPO 2418/2422 3SM -SN BR BKN015
     FM242200 36014G23KT 4SM -SN OVC020
     FM250200 35014G23KT 6SM -SHSN OVC040
     FM250900 33012KT P6SM OVC050
     FM251400 32012KT P6SM SCT150=

USA.gov is the U.S. government's official web portal to all federal, state and local government web resources and services.